createdAt,value
2023-04-07T00:00:50.609Z,63.81
2023-04-07T00:03:19.367Z,63.35
2023-04-07T00:05:47.977Z,63.35
2023-04-07T00:08:17.838Z,63.08
2023-04-07T00:10:46.293Z,63.00
2023-04-07T00:13:14.631Z,63.43
2023-04-07T00:15:43.162Z,63.50
2023-04-07T00:18:11.649Z,63.83
2023-04-07T00:20:40.220Z,63.46
2023-04-07T00:23:08.735Z,64.47
2023-04-07T00:25:38.562Z,63.45
2023-04-07T00:28:06.938Z,63.74
2023-04-07T00:30:35.424Z,63.95
2023-04-07T00:33:03.889Z,63.95
2023-04-07T00:35:32.466Z,64.51
2023-04-07T00:38:00.915Z,64.22
2023-04-07T00:40:29.765Z,64.82
2023-04-07T00:42:59.628Z,65.18
2023-04-07T00:45:28.150Z,64.77
2023-04-07T00:47:58.916Z,65.15
2023-04-07T00:50:27.816Z,64.49
2023-04-07T00:52:57.167Z,64.95
2023-04-07T00:55:26.706Z,64.42
2023-04-07T00:57:57.145Z,64.39
2023-04-07T01:00:29.713Z,65.00
2023-04-07T01:03:03.143Z,64.71
2023-04-07T01:05:40.527Z,65.71
2023-04-07T01:08:16.246Z,65.79
2023-04-07T01:10:51.463Z,64.65
2023-04-07T01:13:28.957Z,65.16
2023-04-07T01:16:16.882Z,64.31
2023-04-07T01:18:55.725Z,64.95
2023-04-07T01:21:29.119Z,65.09
2023-04-07T01:24:26.879Z,65.41
2023-04-07T01:27:01.338Z,65.83
2023-04-07T01:29:36.751Z,65.20
2023-04-07T01:32:09.107Z,66.16
2023-04-07T01:34:39.935Z,65.69
2023-04-07T01:37:09.315Z,66.05
2023-04-07T01:39:39.852Z,65.61
2023-04-07T01:42:09.572Z,66.23
2023-04-07T01:44:41.000Z,65.64
2023-04-07T01:47:09.898Z,66.42
2023-04-07T01:49:39.227Z,65.92
2023-04-07T01:52:09.326Z,65.21
2023-04-07T01:54:38.929Z,64.90
2023-04-07T01:57:07.371Z,64.91
2023-04-07T01:59:35.802Z,63.93
2023-04-07T02:02:07.729Z,64.27
2023-04-07T02:04:41.803Z,64.25
2023-04-07T02:07:23.591Z,63.88
2023-04-07T02:09:57.891Z,64.33
2023-04-07T02:12:28.735Z,64.25
2023-04-07T02:15:12.749Z,65.10
2023-04-07T02:17:49.294Z,65.03
2023-04-07T02:20:18.854Z,65.50
2023-04-07T02:22:47.990Z,66.16
2023-04-07T02:25:24.112Z,65.55
2023-04-07T02:27:52.568Z,66.21
2023-04-07T02:30:21.608Z,66.20
2023-04-07T02:32:51.689Z,66.19
2023-04-07T02:35:20.587Z,66.68
2023-04-07T02:37:49.160Z,67.23
2023-04-07T02:40:17.841Z,67.39
2023-04-07T02:42:46.491Z,67.04
2023-04-07T02:45:15.004Z,66.82
2023-04-07T02:47:43.503Z,66.77
2023-04-07T02:50:13.635Z,67.03
2023-04-07T02:52:42.168Z,67.17
2023-04-07T02:55:14.478Z,66.91
2023-04-07T02:57:43.249Z,66.48
2023-04-07T03:00:21.929Z,65.83
2023-04-07T03:03:09.436Z,66.05
2023-04-07T03:05:41.952Z,66.49
2023-04-07T03:08:13.044Z,67.04
2023-04-07T03:10:42.241Z,66.09
2023-04-07T03:13:12.976Z,66.15
2023-04-07T03:15:41.683Z,66.31
2023-04-07T03:18:11.554Z,65.60
2023-04-07T03:20:42.695Z,65.84
2023-04-07T03:23:13.260Z,65.96
2023-04-07T03:25:42.134Z,66.67
2023-04-07T03:28:12.728Z,66.22
2023-04-07T03:30:42.042Z,66.34
2023-04-07T03:33:11.349Z,66.51
2023-04-07T03:35:40.062Z,66.94
2023-04-07T03:38:11.384Z,66.86
2023-04-07T03:40:39.824Z,66.47
2023-04-07T03:43:12.681Z,66.18
2023-04-07T03:45:41.839Z,65.96
2023-04-07T03:48:12.431Z,65.27
2023-04-07T03:50:50.270Z,65.61
2023-04-07T03:53:22.140Z,65.15
2023-04-07T03:55:52.340Z,65.51
2023-04-07T03:58:41.691Z,66.08
2023-04-07T04:01:14.960Z,65.62
2023-04-07T04:03:45.833Z,66.22
2023-04-07T04:06:25.065Z,66.79
2023-04-07T04:08:57.303Z,66.48
2023-04-07T04:11:27.455Z,66.69
2023-04-07T04:14:00.153Z,66.88
2023-04-07T04:16:29.150Z,66.89
2023-04-07T04:19:00.355Z,67.00
2023-04-07T04:21:32.062Z,67.16
2023-04-07T04:24:01.950Z,67.23
2023-04-07T04:26:31.608Z,67.34
2023-04-07T04:29:06.519Z,67.23
2023-04-07T04:31:35.225Z,67.00
2023-04-07T04:34:03.854Z,67.50
2023-04-07T04:36:32.903Z,66.45
2023-04-07T04:39:07.251Z,66.35
2023-04-07T04:41:37.102Z,66.13
2023-04-07T04:44:06.542Z,65.65
2023-04-07T04:46:36.287Z,65.39
2023-04-07T04:49:04.896Z,64.87
2023-04-07T04:51:33.504Z,65.07
2023-04-07T04:54:09.995Z,65.40
2023-04-07T04:56:39.764Z,65.78
2023-04-07T04:59:08.207Z,66.38
2023-04-07T05:01:45.748Z,66.17
2023-04-07T05:04:18.056Z,66.20
2023-04-07T05:06:53.853Z,66.09
2023-04-07T05:09:28.698Z,66.65
2023-04-07T05:11:58.017Z,67.35
2023-04-07T05:14:27.513Z,67.16
2023-04-07T05:17:02.074Z,67.76
2023-04-07T05:19:31.068Z,68.08
2023-04-07T05:22:06.007Z,68.21
2023-04-07T05:24:43.839Z,67.93
2023-04-07T05:27:12.444Z,67.94
2023-04-07T05:29:41.863Z,67.95
2023-04-07T05:32:17.577Z,67.76
2023-04-07T05:34:46.293Z,68.20
2023-04-07T05:37:15.838Z,67.92
2023-04-07T05:39:46.564Z,67.71
2023-04-07T05:42:16.101Z,68.06
2023-04-07T05:44:47.463Z,67.70
2023-04-07T05:47:16.470Z,67.81
2023-04-07T05:49:47.481Z,67.37
2023-04-07T05:52:16.401Z,67.54
2023-04-07T05:54:52.229Z,67.15
2023-04-07T05:57:22.868Z,67.05
2023-04-07T05:59:53.027Z,67.35
2023-04-07T06:02:21.711Z,67.65
2023-04-07T06:04:50.231Z,67.58
2023-04-07T06:07:20.840Z,67.31
2023-04-07T06:09:49.255Z,67.13
2023-04-07T06:12:19.052Z,67.83
2023-04-07T06:14:52.972Z,67.45
2023-04-07T06:17:21.621Z,68.03
2023-04-07T06:19:50.053Z,68.58
2023-04-07T06:22:18.585Z,68.14
2023-04-07T06:24:47.030Z,67.37
2023-04-07T06:27:16.567Z,66.60
2023-04-07T06:29:46.394Z,66.45
2023-04-07T06:32:15.010Z,65.69
2023-04-07T06:34:43.509Z,64.76
2023-04-07T06:37:12.173Z,63.23
2023-04-07T06:39:40.638Z,61.72
2023-04-07T06:42:09.068Z,59.72
2023-04-07T06:44:41.659Z,57.80
2023-04-07T06:47:11.768Z,55.75
2023-04-07T06:49:40.128Z,54.28
2023-04-07T06:52:08.557Z,53.77
2023-04-07T06:54:36.944Z,52.52
2023-04-07T06:57:06.932Z,51.19
2023-04-07T06:59:35.919Z,48.91
2023-04-07T07:02:04.590Z,48.10
2023-04-07T07:04:34.645Z,47.44
2023-04-07T07:07:03.445Z,46.49
2023-04-07T07:09:31.937Z,45.36
2023-04-07T07:12:04.318Z,44.61
2023-04-07T07:14:32.901Z,43.41
2023-04-07T07:17:01.260Z,43.29
2023-04-07T07:19:29.702Z,43.14
2023-04-07T07:21:59.491Z,42.89
2023-04-07T07:24:29.325Z,42.42
2023-04-07T07:26:58.039Z,42.38
2023-04-07T07:29:27.351Z,43.03
2023-04-07T07:31:56.244Z,42.79
2023-04-07T07:34:25.782Z,43.96
2023-04-07T07:36:55.238Z,44.73
2023-04-07T07:39:25.012Z,44.58
2023-04-07T07:41:55.494Z,44.70
2023-04-07T07:44:24.012Z,44.86
2023-04-07T07:46:52.495Z,44.37
2023-04-07T07:49:21.538Z,43.80
2023-04-07T07:51:50.213Z,43.47
2023-04-07T07:54:18.686Z,44.11
2023-04-07T07:56:48.524Z,44.42
2023-04-07T07:59:17.828Z,44.11
2023-04-07T08:01:46.454Z,44.24
2023-04-07T08:04:15.112Z,44.90
2023-04-07T08:06:43.628Z,44.96
2023-04-07T08:09:12.124Z,43.59
2023-04-07T08:11:40.607Z,43.66
2023-04-07T08:14:10.429Z,43.30
2023-04-07T08:16:39.367Z,43.63
2023-04-07T08:19:08.049Z,43.91
2023-04-07T08:21:36.521Z,44.23
2023-04-07T08:24:05.648Z,42.95
2023-04-07T08:26:34.538Z,42.74
2023-04-07T08:29:02.940Z,42.48
2023-04-07T08:31:32.819Z,42.42
2023-04-07T08:34:01.247Z,41.96
2023-04-07T08:36:30.343Z,41.74
2023-04-07T08:39:02.118Z,40.25
2023-04-07T08:41:38.053Z,38.54
2023-04-07T08:44:08.253Z,37.79
2023-04-07T08:46:40.712Z,37.82
2023-04-07T08:49:11.367Z,37.67
2023-04-07T08:51:42.904Z,37.45
2023-04-07T08:54:14.005Z,36.74
2023-04-07T08:56:43.691Z,36.96
2023-04-07T08:59:13.390Z,36.69
2023-04-07T09:01:43.739Z,35.85
2023-04-07T09:04:12.418Z,35.95
2023-04-07T09:06:41.060Z,36.03
2023-04-07T09:09:09.734Z,35.65
2023-04-07T09:11:41.165Z,34.78
2023-04-07T09:14:09.642Z,34.94
2023-04-07T09:16:38.319Z,34.72
2023-04-07T09:19:09.715Z,34.16
2023-04-07T09:21:50.070Z,33.69
2023-04-07T09:24:25.893Z,34.93
2023-04-07T09:27:11.342Z,33.82
2023-04-07T09:29:40.228Z,33.92
2023-04-07T09:32:09.083Z,33.95
2023-04-07T09:34:41.221Z,32.79
2023-04-07T09:37:10.815Z,33.58
2023-04-07T09:39:51.585Z,32.80
2023-04-07T09:42:20.019Z,32.27
2023-04-07T09:44:49.389Z,32.35
2023-04-07T09:47:18.163Z,31.26
2023-04-07T09:49:56.079Z,30.76
2023-04-07T09:52:27.551Z,31.39
2023-04-07T09:54:57.783Z,31.96
2023-04-07T09:57:26.701Z,30.82
2023-04-07T09:59:56.092Z,30.76
2023-04-07T10:02:27.019Z,30.04
2023-04-07T10:04:57.046Z,29.93
2023-04-07T10:07:25.727Z,30.05
2023-04-07T10:09:54.207Z,29.78
2023-04-07T10:12:24.780Z,29.35
2023-04-07T10:14:53.503Z,30.03
2023-04-07T10:17:23.406Z,30.38
2023-04-07T10:19:52.746Z,30.22
2023-04-07T10:22:23.130Z,30.40
2023-04-07T10:24:57.633Z,29.98
2023-04-07T10:27:33.268Z,30.17
2023-04-07T10:30:04.149Z,29.99
2023-04-07T10:32:32.832Z,30.40
2023-04-07T10:35:02.474Z,29.20
2023-04-07T10:37:34.499Z,28.86
2023-04-07T10:40:30.856Z,28.64
2023-04-07T10:42:59.853Z,29.01
2023-04-07T10:45:54.646Z,28.19
2023-04-07T10:48:23.681Z,28.01
2023-04-07T10:51:15.609Z,27.61
2023-04-07T10:54:21.152Z,28.51
2023-04-07T10:57:12.043Z,27.29
2023-04-07T10:59:46.967Z,27.39
2023-04-07T11:02:37.112Z,27.29
2023-04-07T11:05:06.073Z,27.07
2023-04-07T11:07:50.136Z,27.12
2023-04-07T11:10:19.552Z,27.00
2023-04-07T11:13:06.976Z,27.07
2023-04-07T11:15:39.408Z,26.93
2023-04-07T11:18:18.212Z,26.92
2023-04-07T11:20:49.151Z,26.74
2023-04-07T11:23:19.437Z,27.10
2023-04-07T11:25:49.468Z,27.44
2023-04-07T11:28:20.094Z,26.73
2023-04-07T11:30:52.088Z,25.89
2023-04-07T11:33:22.432Z,25.80
2023-04-07T11:35:52.424Z,25.92
2023-04-07T11:38:21.344Z,25.36
2023-04-07T11:40:49.797Z,25.44
2023-04-07T11:43:21.801Z,25.35
2023-04-07T11:46:06.755Z,26.67
2023-04-07T11:48:36.750Z,26.51
2023-04-07T11:51:06.025Z,27.16
2023-04-07T11:53:36.001Z,25.83
2023-04-07T11:56:07.726Z,25.07
2023-04-07T11:58:37.840Z,25.70
2023-04-07T12:01:09.167Z,25.59
2023-04-07T12:03:39.139Z,25.90
2023-04-07T12:06:08.011Z,26.04
2023-04-07T12:08:41.374Z,27.38
2023-04-07T12:11:10.669Z,27.06
2023-04-07T12:13:41.563Z,26.49
2023-04-07T12:16:10.049Z,26.08
2023-04-07T12:18:38.442Z,26.23
2023-04-07T12:21:06.975Z,25.98
2023-04-07T12:23:35.244Z,25.49
2023-04-07T12:26:03.830Z,25.44
2023-04-07T12:28:32.258Z,25.39
2023-04-07T12:31:02.051Z,25.65
2023-04-07T12:33:30.456Z,25.50
2023-04-07T12:35:58.964Z,25.48
2023-04-07T12:38:27.426Z,25.21
2023-04-07T12:40:55.858Z,25.64
2023-04-07T12:43:24.243Z,25.86
2023-04-07T12:45:53.369Z,25.64
2023-04-07T12:48:23.800Z,26.88
2023-04-07T12:50:52.336Z,25.90
2023-04-07T12:53:20.689Z,24.99
2023-04-07T12:55:50.549Z,24.57
2023-04-07T12:58:19.264Z,24.74
2023-04-07T13:00:48.661Z,24.97
2023-04-07T13:03:17.863Z,25.02
2023-04-07T13:05:48.691Z,25.28
2023-04-07T13:08:17.037Z,24.84
2023-04-07T13:10:45.450Z,24.84
2023-04-07T13:13:13.862Z,25.58
2023-04-07T13:15:42.679Z,25.65
2023-04-07T13:18:11.518Z,24.89
2023-04-07T13:20:40.330Z,24.97
2023-04-07T13:23:10.463Z,23.69
2023-04-07T13:25:39.003Z,24.31
2023-04-07T13:28:07.796Z,24.82
2023-04-07T13:30:36.515Z,24.03
2023-04-07T13:33:06.082Z,24.07
2023-04-07T13:35:36.154Z,24.51
2023-04-07T13:38:05.067Z,24.45
2023-04-07T13:40:34.874Z,23.62
2023-04-07T13:43:03.313Z,24.32
2023-04-07T13:45:31.776Z,24.43
2023-04-07T13:48:00.395Z,23.81
2023-04-07T13:50:29.144Z,23.81
2023-04-07T13:52:57.635Z,23.69
2023-04-07T13:55:26.160Z,23.57
2023-04-07T13:57:55.952Z,24.42
2023-04-07T14:00:24.471Z,25.10
2023-04-07T14:02:53.000Z,26.46
2023-04-07T14:05:21.569Z,26.78
2023-04-07T14:07:51.199Z,27.10
2023-04-07T14:10:19.903Z,27.04
2023-04-07T14:12:48.705Z,27.01
2023-04-07T14:15:18.591Z,27.05
2023-04-07T14:17:47.187Z,26.76
2023-04-07T14:20:15.626Z,26.62
2023-04-07T14:22:44.578Z,27.32
2023-04-07T14:25:13.042Z,25.63
2023-04-07T14:27:41.572Z,26.89
2023-04-07T14:30:11.273Z,26.44
2023-04-07T14:32:41.086Z,26.79
2023-04-07T14:35:10.336Z,27.41
2023-04-07T14:37:39.316Z,26.91
2023-04-07T14:40:09.000Z,26.70
2023-04-07T14:42:38.076Z,27.44
2023-04-07T14:45:07.526Z,28.14
2023-04-07T14:47:36.097Z,27.54
2023-04-07T14:50:06.516Z,27.14
2023-04-07T14:52:34.972Z,27.24
2023-04-07T14:55:03.434Z,27.85
2023-04-07T14:57:31.827Z,27.59
2023-04-07T15:00:00.216Z,27.26
2023-04-07T15:02:29.671Z,27.15
2023-04-07T15:04:58.239Z,26.73
2023-04-07T15:07:28.188Z,27.50
2023-04-07T15:09:59.724Z,28.08
2023-04-07T15:12:31.600Z,27.64
2023-04-07T15:15:00.952Z,28.41
2023-04-07T15:17:42.349Z,27.79
2023-04-07T15:20:13.269Z,27.70
2023-04-07T15:22:43.322Z,27.81
2023-04-07T15:25:11.767Z,27.74
2023-04-07T15:27:40.352Z,27.11
2023-04-07T15:30:09.983Z,27.31
2023-04-07T15:32:38.561Z,27.41
2023-04-07T15:35:07.752Z,27.53
2023-04-07T15:37:36.267Z,27.35
2023-04-07T15:40:06.994Z,27.52
2023-04-07T15:42:41.740Z,27.42
2023-04-07T15:45:11.413Z,27.17
2023-04-07T15:47:39.961Z,27.13
2023-04-07T15:50:09.908Z,28.02
2023-04-07T15:52:38.440Z,27.58
2023-04-07T15:55:08.981Z,28.07
2023-04-07T15:57:37.410Z,28.75
2023-04-07T16:00:08.380Z,29.65
2023-04-07T16:02:36.953Z,29.57
2023-04-07T16:05:05.677Z,29.75
2023-04-07T16:07:34.117Z,29.55
2023-04-07T16:10:02.961Z,29.07
2023-04-07T16:12:34.533Z,28.81
2023-04-07T16:15:03.122Z,28.94
2023-04-07T16:17:31.617Z,29.81
2023-04-07T16:20:00.118Z,29.74
2023-04-07T16:22:28.464Z,30.17
2023-04-07T16:24:56.939Z,30.48
2023-04-07T16:27:25.573Z,30.71
2023-04-07T16:29:55.380Z,29.69
2023-04-07T16:32:24.882Z,29.84
2023-04-07T16:34:53.418Z,29.03
2023-04-07T16:37:22.782Z,28.83
2023-04-07T16:39:51.292Z,28.68
2023-04-07T16:42:19.708Z,28.61
2023-04-07T16:44:48.087Z,28.79
2023-04-07T16:47:17.952Z,29.19
2023-04-07T16:49:46.512Z,29.93
2023-04-07T16:52:14.921Z,29.45
2023-04-07T16:54:43.823Z,29.52
2023-04-07T16:57:12.499Z,29.24
2023-04-07T16:59:41.040Z,29.23
2023-04-07T17:02:11.589Z,30.08
2023-04-07T17:04:41.996Z,30.72
2023-04-07T17:07:10.992Z,32.75
2023-04-07T17:09:39.529Z,33.15
2023-04-07T17:12:09.349Z,33.62
2023-04-07T17:14:38.361Z,33.44
2023-04-07T17:17:07.775Z,33.77
2023-04-07T17:19:36.962Z,31.85
2023-04-07T17:22:06.854Z,30.11
2023-04-07T17:24:35.432Z,29.59
2023-04-07T17:27:03.874Z,29.24
2023-04-07T17:29:33.788Z,29.58
2023-04-07T17:32:02.987Z,29.73
2023-04-07T17:34:31.828Z,30.03
2023-04-07T17:37:00.651Z,29.48
2023-04-07T17:39:30.602Z,29.45
2023-04-07T17:41:59.039Z,29.58
2023-04-07T17:44:27.883Z,29.75
2023-04-07T17:46:56.487Z,29.48
2023-04-07T17:49:25.250Z,29.64
2023-04-07T17:51:54.165Z,28.91
2023-04-07T17:54:26.192Z,28.83
2023-04-07T17:56:56.553Z,28.69
2023-04-07T17:59:25.431Z,29.09
2023-04-07T18:01:54.082Z,29.10
2023-04-07T18:04:23.433Z,29.17
2023-04-07T18:06:52.031Z,29.24
2023-04-07T18:09:20.727Z,29.30
2023-04-07T18:11:49.436Z,29.56
2023-04-07T18:14:19.770Z,29.73
2023-04-07T18:16:48.750Z,29.75
2023-04-07T18:19:17.724Z,29.86
2023-04-07T18:21:46.132Z,30.45
2023-04-07T18:24:14.482Z,30.28
2023-04-07T18:26:44.559Z,29.85
2023-04-07T18:29:14.946Z,29.91
2023-04-07T18:31:47.349Z,29.94
2023-04-07T18:34:15.898Z,30.29
2023-04-07T18:36:44.359Z,30.67
2023-04-07T18:39:13.590Z,31.67
2023-04-07T18:41:44.863Z,32.16
2023-04-07T18:44:13.395Z,32.53
2023-04-07T18:46:41.959Z,32.55
2023-04-07T18:49:11.864Z,32.71
2023-04-07T18:51:41.774Z,32.78
2023-04-07T18:54:11.209Z,32.85
2023-04-07T18:56:39.990Z,32.84
2023-04-07T18:59:08.578Z,32.67
2023-04-07T19:01:38.081Z,32.58
2023-04-07T19:04:06.842Z,33.07
2023-04-07T19:06:37.486Z,32.72
2023-04-07T19:09:06.801Z,33.93
2023-04-07T19:11:36.134Z,30.89
2023-04-07T19:14:06.133Z,31.56
2023-04-07T19:16:36.082Z,33.04
2023-04-07T19:19:05.556Z,33.05
2023-04-07T19:21:34.357Z,33.18
2023-04-07T19:24:04.421Z,33.45
2023-04-07T19:26:33.924Z,34.56
2023-04-07T19:29:03.581Z,34.57
2023-04-07T19:31:32.830Z,35.39
2023-04-07T19:34:01.528Z,34.58
2023-04-07T19:36:30.200Z,33.23
2023-04-07T19:39:00.305Z,34.48
2023-04-07T19:41:31.586Z,34.13
2023-04-07T19:44:00.161Z,33.81
2023-04-07T19:46:29.182Z,33.76
2023-04-07T19:48:57.830Z,33.42
2023-04-07T19:51:26.532Z,34.65
2023-04-07T19:53:55.076Z,33.86
2023-04-07T19:56:23.698Z,34.29
2023-04-07T19:58:53.568Z,34.50
2023-04-07T20:01:22.063Z,34.86
2023-04-07T20:03:50.632Z,34.82
2023-04-07T20:06:20.913Z,35.00
2023-04-07T20:08:51.178Z,35.81
2023-04-07T20:11:20.121Z,36.55
2023-04-07T20:13:49.677Z,37.16
2023-04-07T20:16:19.867Z,36.73
2023-04-07T20:18:49.295Z,37.04
2023-04-07T20:21:18.641Z,37.11
2023-04-07T20:23:47.361Z,37.23
2023-04-07T20:26:15.772Z,37.20
2023-04-07T20:28:44.357Z,37.27
2023-04-07T20:31:13.293Z,37.83
2023-04-07T20:33:43.616Z,37.94
2023-04-07T20:36:14.384Z,37.41
2023-04-07T20:38:44.638Z,38.42
2023-04-07T20:41:14.128Z,38.81
2023-04-07T20:43:42.829Z,38.92
2023-04-07T20:46:12.944Z,39.71
2023-04-07T20:48:43.366Z,39.79
2023-04-07T20:51:12.381Z,40.14
2023-04-07T20:53:41.262Z,40.00
2023-04-07T20:56:11.692Z,40.57
2023-04-07T20:58:41.540Z,40.88
2023-04-07T21:01:10.027Z,41.16
2023-04-07T21:03:39.186Z,41.77
2023-04-07T21:06:09.326Z,41.43
2023-04-07T21:08:37.775Z,41.95
2023-04-07T21:11:06.318Z,42.64
2023-04-07T21:13:34.890Z,42.83
2023-04-07T21:16:05.035Z,42.96
2023-04-07T21:18:33.727Z,43.37
2023-04-07T21:21:03.653Z,43.88
2023-04-07T21:23:33.914Z,43.96
2023-04-07T21:26:03.075Z,44.02
2023-04-07T21:28:31.588Z,44.25
2023-04-07T21:31:01.446Z,44.02
2023-04-07T21:33:30.124Z,44.27
2023-04-07T21:35:59.637Z,44.83
2023-04-07T21:38:31.261Z,45.79
2023-04-07T21:41:02.296Z,46.81
2023-04-07T21:43:31.331Z,46.68
2023-04-07T21:46:00.949Z,47.01
2023-04-07T21:48:32.524Z,46.67
2023-04-07T21:51:01.328Z,46.09
2023-04-07T21:53:29.859Z,45.94
2023-04-07T21:55:58.494Z,45.46
2023-04-07T21:58:28.580Z,45.39
2023-04-07T22:00:57.102Z,45.50
2023-04-07T22:03:25.839Z,45.37
2023-04-07T22:05:54.645Z,45.42
2023-04-07T22:08:23.090Z,45.25
2023-04-07T22:10:51.650Z,45.10
2023-04-07T22:13:20.207Z,45.30
2023-04-07T22:15:50.370Z,45.27
2023-04-07T22:18:20.824Z,45.26
2023-04-07T22:20:50.838Z,45.35
2023-04-07T22:23:19.257Z,45.85
2023-04-07T22:25:49.249Z,45.58
2023-04-07T22:28:18.173Z,45.86
2023-04-07T22:30:46.705Z,46.22
2023-04-07T22:33:16.548Z,45.98
2023-04-07T22:35:44.964Z,46.10
2023-04-07T22:38:13.717Z,46.24
2023-04-07T22:40:42.166Z,46.33
2023-04-07T22:43:10.618Z,46.32
2023-04-07T22:45:39.128Z,46.42
2023-04-07T22:48:07.575Z,46.61
2023-04-07T22:50:37.647Z,46.42
2023-04-07T22:53:07.425Z,47.01
2023-04-07T22:55:36.324Z,47.28
2023-04-07T22:58:04.707Z,47.29
2023-04-07T23:00:33.735Z,47.35
2023-04-07T23:03:02.382Z,47.41
2023-04-07T23:05:30.939Z,47.82
2023-04-07T23:08:00.775Z,48.19
2023-04-07T23:10:29.174Z,48.16
2023-04-07T23:12:57.586Z,48.00
2023-04-07T23:15:27.358Z,48.39
2023-04-07T23:17:56.736Z,47.97
2023-04-07T23:20:25.175Z,47.68
2023-04-07T23:22:53.567Z,47.81
2023-04-07T23:25:23.682Z,47.84
2023-04-07T23:27:52.175Z,47.70
2023-04-07T23:30:20.739Z,47.87
2023-04-07T23:32:49.208Z,48.11
2023-04-07T23:35:17.793Z,47.79
2023-04-07T23:37:46.279Z,48.15
2023-04-07T23:40:16.335Z,47.81
2023-04-07T23:42:46.242Z,48.07
2023-04-07T23:45:14.797Z,48.00
2023-04-07T23:47:43.288Z,47.94
2023-04-07T23:50:12.170Z,47.83
2023-04-07T23:52:41.133Z,48.04
2023-04-07T23:55:10.417Z,48.03
2023-04-07T23:57:39.821Z,47.98
